Terminal Aerodrome Forecast
Issued by NWS

Home | Current Version | Previous Version | Text Only | Print | Product List | Glossary On
Versions: 1 2 3 4 5 6 7 8 9 10 11 12 13 14 15 16 17 18 19 20 21 22 23 24
000
FTUS41 KPBZ 311900 AAA
TAFAGC
TAF AMD
KAGC 311924Z 3119/0118 26007KT P6SM BKN250
     FM010900 VRB03KT 3SM -SN BR OVC020
     FM011400 11005KT 1SM -SN BR OVC008=

USA.gov is the U.S. government's official web portal to all federal, state and local government web resources and services.